aviador You're here:

KMHL Decoded Metar

in
Report Time2018-07-18 10:15:00
UTC Time2018-07-18 10:41:07
Flight Rules vfr VFR
WindCalm
Visibility9999 m
Phenomena:N/A
Clouds:Overcast 045 Hf
Expected CloudBase > 1,200 ft AGL from Temp-Dew spread
Ceiling4,500 ft
Temp21°C
Dew Point18°C (83% RH)
QNH1018 hPa
Raw Report
KMHL 181015Z AUTO 00000KT 10SM OVC045 21/18 A3005 RMK AO2 LTG DSNT
S=

Extra information for KMHL:More info

Social comments